Time;durP1;ratioP1;P1;durP2;ratioP2;P2;SDS_P1;SDS_P2;PMS_P1;PMS_P2;Temp;Humidity;BMP_temperature;BMP_pressure;BME280_temperature;BME280_humidity;BME280_pressure;Samples;Min_cycle;Max_cycle;Signal;HPM_P1;HPM_P2
2023/10/08 00:02:22;;;;;;;0.10;0.10;;;;;;;;;;6124752;23;20033;-78
2023/10/08 00:04:50;;;;;;;0.10;0.10;;;;;;;;;;6124632;23;20072;-79
2023/10/08 00:07:21;;;;;;;0.10;0.10;;;;;;;;;;6123929;23;20476;-78
2023/10/08 00:09:48;;;;;;;0.35;0.35;;;;;;;;;;6125536;23;20452;-79
2023/10/08 00:12:16;;;;;;;0.20;0.20;;;;;;;;;;6123129;23;20034;-78
2023/10/08 00:14:49;;;;;;;0.10;0.10;;;;;;;;;;6114744;23;20030;-79
2023/10/08 00:17:17;;;;;;;0.10;0.10;;;;;;;;;;6123940;23;20101;-78
2023/10/08 00:19:44;;;;;;;0.10;0.10;;;;;;;;;;6122280;23;20483;-78
2023/10/08 00:22:12;;;;;;;0.10;0.10;;;;;;;;;;6124209;23;20106;-79
2023/10/08 00:24:41;;;;;;;0.10;0.10;;;;;;;;;;6123366;23;20482;-78
2023/10/08 00:27:08;;;;;;;0.20;0.20;;;;;;;;;;6122968;23;20038;-78
2023/10/08 00:29:39;;;;;;;0.17;0.17;;;;;;;;;;6122708;23;20536;-78
2023/10/08 00:32:11;;;;;;;0.10;0.10;;;;;;;;;;6124330;23;20390;-79
2023/10/08 00:34:41;;;;;;;0.17;0.17;;;;;;;;;;6124796;23;20026;-79
2023/10/08 00:37:09;;;;;;;0.10;0.10;;;;;;;;;;6123558;23;20491;-79
2023/10/08 00:39:37;;;;;;;0.10;0.10;;;;;;;;;;6124435;23;20069;-79
2023/10/08 00:42:06;;;;;;;0.10;0.10;;;;;;;;;;6123076;23;20463;-78
2023/10/08 00:44:37;;;;;;;0.10;0.10;;;;;;;;;;6123779;23;20539;-79
2023/10/08 00:47:05;;;;;;;0.10;0.10;;;;;;;;;;6122475;23;20034;-79
2023/10/08 00:49:47;;;;;;;0.20;0.20;;;;;;;;;;6124404;23;20434;-79
2023/10/08 00:57:29;;;;;;;0.75;0.75;;;;;;;;;;6123436;23;20034;-80
2023/10/08 00:59:58;;;;;;;0.10;0.10;;;;;;;;;;6123208;23;20467;-78
2023/10/08 01:02:42;;;;;;;0.10;0.10;;;;;;;;;;6122190;23;20030;-80
2023/10/08 01:05:11;;;;;;;0.22;0.22;;;;;;;;;;6124014;23;20098;-79
2023/10/08 01:07:40;;;;;;;0.10;0.10;;;;;;;;;;6123668;23;20782;-78
2023/10/08 01:10:10;;;;;;;0.20;0.20;;;;;;;;;;6124618;23;20057;-78
2023/10/08 01:12:49;;;;;;;;;;;;;;;;;;6097486;23;20026;-78
2023/10/08 01:15:23;;;;;;;0.10;0.10;;;;;;;;;;6096541;23;47298;-79
2023/10/08 01:18:00;;;;;;;0.10;0.10;;;;;;;;;;6124170;23;20467;-79
2023/10/08 01:23:13;;;;;;;0.43;0.32;;;;;;;;;;6123070;23;20060;-78
2023/10/08 01:25:41;;;;;;;0.10;0.10;;;;;;;;;;6123287;23;20430;-78
2023/10/08 01:28:14;;;;;;;0.10;0.10;;;;;;;;;;6121698;23;20133;-79
2023/10/08 01:30:42;;;;;;;0.30;0.30;;;;;;;;;;6122497;23;20034;-78
2023/10/08 01:33:12;;;;;;;0.13;0.13;;;;;;;;;;6097821;23;20459;-79
2023/10/08 01:35:40;;;;;;;0.10;0.10;;;;;;;;;;6124300;23;20030;-78
2023/10/08 01:38:07;;;;;;;0.10;0.10;;;;;;;;;;6123391;23;20027;-78
2023/10/08 01:40:34;;;;;;;0.20;0.20;;;;;;;;;;6122550;23;20034;-78
2023/10/08 01:43:00;;;;;;;0.28;0.28;;;;;;;;;;6097409;23;20037;-79
2023/10/08 01:45:29;;;;;;;0.10;0.10;;;;;;;;;;6123679;23;20078;-78
2023/10/08 01:47:56;;;;;;;0.30;0.30;;;;;;;;;;6123295;23;20458;-79
2023/10/08 01:50:29;;;;;;;0.20;0.20;;;;;;;;;;6122156;23;20589;-78
2023/10/08 01:52:55;;;;;;;0.10;0.10;;;;;;;;;;6120039;23;20034;-79
2023/10/08 01:55:22;;;;;;;0.38;0.38;;;;;;;;;;6123476;23;20698;-79
2023/10/08 01:57:53;;;;;;;0.13;0.13;;;;;;;;;;6123693;23;20026;-78
2023/10/08 02:00:19;;;;;;;0.52;0.52;;;;;;;;;;6095983;23;20511;-78
2023/10/08 02:02:47;;;;;;;0.10;0.10;;;;;;;;;;6123031;23;20098;-78
2023/10/08 02:05:15;;;;;;;0.10;0.10;;;;;;;;;;6122877;23;20109;-78
2023/10/08 02:07:44;;;;;;;0.10;0.10;;;;;;;;;;6124087;23;20098;-78
2023/10/08 02:10:10;;;;;;;0.30;0.30;;;;;;;;;;6119171;23;20026;-78
2023/10/08 02:12:40;;;;;;;0.32;0.32;;;;;;;;;;6122522;23;20082;-80
2023/10/08 02:15:08;;;;;;;0.73;0.60;;;;;;;;;;6122578;23;20086;-79
2023/10/08 02:17:34;;;;;;;0.30;0.30;;;;;;;;;;6122905;23;20031;-78
2023/10/08 02:20:04;;;;;;;0.32;0.22;;;;;;;;;;6122093;23;20101;-78
2023/10/08 02:22:32;;;;;;;0.17;0.17;;;;;;;;;;6122674;23;20407;-78
2023/10/08 02:25:01;;;;;;;0.10;0.10;;;;;;;;;;6120151;23;20475;-78
2023/10/08 02:27:28;;;;;;;0.10;0.10;;;;;;;;;;6122578;23;20069;-79
2023/10/08 02:29:54;;;;;;;0.10;0.10;;;;;;;;;;6122313;23;20415;-78
2023/10/08 02:32:24;;;;;;;0.10;0.10;;;;;;;;;;6121440;23;20558;-77
2023/10/08 02:34:50;;;;;;;0.10;0.10;;;;;;;;;;6123031;23;20041;-78
2023/10/08 02:37:17;;;;;;;0.10;0.10;;;;;;;;;;6122888;23;20037;-78
2023/10/08 02:39:43;;;;;;;0.10;0.10;;;;;;;;;;6121535;23;20026;-77
2023/10/08 02:42:10;;;;;;;0.52;0.30;;;;;;;;;;6121528;23;20035;-78
2023/10/08 02:44:41;;;;;;;0.10;0.10;;;;;;;;;;6123180;23;20476;-78
2023/10/08 02:47:11;;;;;;;0.10;0.10;;;;;;;;;;6122397;23;20041;-78
2023/10/08 02:49:40;;;;;;;0.10;0.10;;;;;;;;;;6121753;23;20110;-78
2023/10/08 02:52:08;;;;;;;0.30;0.30;;;;;;;;;;6121568;23;20027;-78
2023/10/08 02:54:38;;;;;;;0.20;0.20;;;;;;;;;;6121877;23;20037;-78
2023/10/08 02:57:09;;;;;;;0.10;0.10;;;;;;;;;;6122976;23;20061;-77
2023/10/08 02:59:44;;;;;;;0.40;0.40;;;;;;;;;;6123653;23;20062;-78
2023/10/08 03:02:18;;;;;;;0.20;0.20;;;;;;;;;;6122379;23;20034;-77
2023/10/08 03:04:46;;;;;;;0.10;0.10;;;;;;;;;;6123686;23;20031;-78
2023/10/08 03:07:21;;;;;;;0.10;0.10;;;;;;;;;;6125754;23;20945;-78
2023/10/08 03:10:03;;;;;;;0.10;0.10;;;;;;;;;;6125079;23;20494;-78
2023/10/08 03:12:32;;;;;;;0.10;0.10;;;;;;;;;;6122406;23;20034;-77
2023/10/08 03:15:12;;;;;;;0.10;0.10;;;;;;;;;;6123960;23;20035;-78
2023/10/08 03:17:44;;;;;;;0.10;0.10;;;;;;;;;;6125630;23;20026;-78
2023/10/08 03:20:29;;;;;;;0.10;0.10;;;;;;;;;;6125365;23;20114;-78
2023/10/08 03:22:59;;;;;;;0.10;0.10;;;;;;;;;;6099408;23;20030;-78
2023/10/08 03:25:28;;;;;;;0.10;0.10;;;;;;;;;;6124480;23;20542;-78
2023/10/08 03:27:54;;;;;;;0.10;0.10;;;;;;;;;;6122245;23;20026;-78
2023/10/08 03:30:21;;;;;;;0.10;0.10;;;;;;;;;;6126584;23;20033;-77
2023/10/08 03:32:56;;;;;;;0.20;0.20;;;;;;;;;;6124930;23;20026;-78
2023/10/08 03:35:27;;;;;;;0.20;0.20;;;;;;;;;;6125775;23;20555;-78
2023/10/08 03:38:05;;;;;;;0.10;0.10;;;;;;;;;;6121379;23;20085;-78
2023/10/08 03:40:42;;;;;;;0.10;0.10;;;;;;;;;;6124338;23;20081;-78
2023/10/08 03:43:19;;;;;;;1.48;0.57;;;;;;;;;;6124321;23;20073;-77
2023/10/08 03:45:53;;;;;;;0.10;0.10;;;;;;;;;;6126002;23;20026;-78
2023/10/08 03:48:22;;;;;;;0.20;0.20;;;;;;;;;;6124361;23;20168;-78
2023/10/08 03:50:56;;;;;;;0.10;0.10;;;;;;;;;;6124553;23;20031;-77
2023/10/08 03:53:23;;;;;;;0.20;0.20;;;;;;;;;;6124912;23;20022;-77
2023/10/08 03:55:52;;;;;;;0.10;0.10;;;;;;;;;;6123986;23;20019;-77
2023/10/08 03:58:29;;;;;;;0.35;0.35;;;;;;;;;;6122990;23;20027;-78
2023/10/08 04:01:18;;;;;;;0.10;0.10;;;;;;;;;;6125906;23;20053;-77
2023/10/08 04:06:28;;;;;;;1.27;0.80;;;;;;;;;;6124056;23;20136;-77
2023/10/08 04:09:10;;;;;;;0.10;0.10;;;;;;;;;;6125133;23;20054;-78
2023/10/08 04:14:16;;;;;;;0.10;0.10;;;;;;;;;;6124777;23;20486;-77
2023/10/08 04:16:42;;;;;;;0.10;0.10;;;;;;;;;;6124108;23;20030;-77
2023/10/08 04:19:09;;;;;;;0.10;0.10;;;;;;;;;;6124058;23;20031;-78
2023/10/08 04:21:36;;;;;;;0.20;0.20;;;;;;;;;;6124999;23;20050;-78
2023/10/08 04:24:06;;;;;;;0.10;0.10;;;;;;;;;;6124244;23;20066;-77
2023/10/08 04:26:32;;;;;;;0.10;0.10;;;;;;;;;;6120043;23;20032;-78
2023/10/08 04:29:02;;;;;;;0.10;0.10;;;;;;;;;;6119783;23;20138;-77
2023/10/08 04:31:38;;;;;;;0.20;0.20;;;;;;;;;;6122382;23;20076;-78
2023/10/08 04:34:22;;;;;;;0.20;0.20;;;;;;;;;;6120329;23;20069;-73
2023/10/08 04:36:56;;;;;;;0.20;0.20;;;;;;;;;;6122697;23;20055;-75
2023/10/08 04:39:32;;;;;;;0.30;0.30;;;;;;;;;;6122502;23;20037;-74
2023/10/08 04:42:05;;;;;;;0.10;0.10;;;;;;;;;;6124147;23;20098;-74
2023/10/08 04:44:32;;;;;;;0.15;0.15;;;;;;;;;;6122142;23;20034;-74
2023/10/08 04:47:04;;;;;;;0.77;0.30;;;;;;;;;;6122926;23;20122;-74
2023/10/08 04:49:32;;;;;;;0.10;0.10;;;;;;;;;;6122525;23;20106;-75
2023/10/08 04:51:59;;;;;;;0.10;0.10;;;;;;;;;;6122417;23;20034;-74
2023/10/08 04:54:32;;;;;;;0.10;0.10;;;;;;;;;;6123552;23;20030;-74
2023/10/08 04:57:00;;;;;;;0.10;0.10;;;;;;;;;;6121484;23;20090;-75
2023/10/08 04:59:33;;;;;;;0.10;0.10;;;;;;;;;;6122801;23;20030;-73
2023/10/08 05:10:56;;;;;;;0.25;0.25;;;;;;;;;;6124007;23;20822;-74
2023/10/08 05:15:33;;;;;;;0.10;0.10;;;;;;;;;;6122832;23;20027;-74
2023/10/08 05:26:08;;;;;;;0.10;0.10;;;;;;;;;;6122583;23;20057;-73
2023/10/08 05:34:16;;;;;;;0.10;0.10;;;;;;;;;;6123249;23;20038;-74
2023/10/08 05:39:54;;;;;;;0.30;0.30;;;;;;;;;;6122478;23;20030;-74
2023/10/08 05:42:31;;;;;;;0.13;0.13;;;;;;;;;;6120809;23;20031;-73
2023/10/08 05:53:29;;;;;;;0.10;0.10;;;;;;;;;;6122943;23;20819;-75
2023/10/08 05:55:47;;;;;;;0.15;0.15;;;;;;;;;;6118509;23;20034;-75
2023/10/08 05:58:14;;;;;;;0.15;0.15;;;;;;;;;;6121754;23;20030;-74
2023/10/08 06:03:36;;;;;;;0.22;0.22;;;;;;;;;;6123594;23;20447;-75
2023/10/08 06:08:49;;;;;;;0.10;0.10;;;;;;;;;;6122497;23;20026;-73
2023/10/08 06:14:03;;;;;;;0.10;0.10;;;;;;;;;;6121699;23;20398;-75
2023/10/08 06:16:41;;;;;;;0.10;0.10;;;;;;;;;;6122447;23;20171;-75
2023/10/08 06:19:10;;;;;;;;;;;;;;;;;;6120931;23;20026;-72
2023/10/08 06:21:39;;;;;;;0.20;0.20;;;;;;;;;;6121384;23;46861;-74
2023/10/08 06:24:09;;;;;;;0.10;0.10;;;;;;;;;;6122998;23;20086;-74
2023/10/08 06:26:48;;;;;;;0.40;0.30;;;;;;;;;;6119688;23;20086;-74
2023/10/08 06:29:27;;;;;;;0.10;0.10;;;;;;;;;;6117669;23;20026;-74
2023/10/08 06:31:55;;;;;;;0.10;0.10;;;;;;;;;;6122656;23;20038;-73
2023/10/08 06:34:22;;;;;;;6.53;0.25;;;;;;;;;;6120456;23;21081;-73
2023/10/08 06:36:53;;;;;;;0.10;0.10;;;;;;;;;;6122507;23;20641;-74
2023/10/08 06:39:33;;;;;;;0.15;0.15;;;;;;;;;;6098196;23;20030;-74
2023/10/08 06:42:00;;;;;;;0.10;0.10;;;;;;;;;;6123880;23;20081;-73
2023/10/08 06:44:27;;;;;;;0.15;0.15;;;;;;;;;;6098072;23;20082;-74
2023/10/08 06:46:55;;;;;;;0.10;0.10;;;;;;;;;;6122255;23;20069;-72
2023/10/08 06:49:23;;;;;;;0.10;0.10;;;;;;;;;;6122095;23;20467;-74
2023/10/08 06:51:50;;;;;;;0.10;0.10;;;;;;;;;;6121530;23;20030;-73
2023/10/08 06:54:17;;;;;;;0.10;0.10;;;;;;;;;;6122861;23;20031;-73
2023/10/08 06:56:51;;;;;;;0.10;0.10;;;;;;;;;;6120123;23;20536;-74
2023/10/08 06:59:22;;;;;;;0.10;0.10;;;;;;;;;;6121509;23;20031;-73
2023/10/08 07:01:51;;;;;;;0.10;0.10;;;;;;;;;;6121320;23;20686;-73
2023/10/08 07:04:18;;;;;;;0.75;0.75;;;;;;;;;;6120097;23;20030;-74
2023/10/08 07:06:50;;;;;;;0.10;0.10;;;;;;;;;;6121966;23;20436;-75
2023/10/08 07:09:28;;;;;;;0.10;0.10;;;;;;;;;;6116291;23;20026;-74
2023/10/08 07:11:56;;;;;;;0.10;0.10;;;;;;;;;;6121425;23;20510;-74
2023/10/08 07:14:26;;;;;;;0.17;0.17;;;;;;;;;;6119332;23;20073;-74
2023/10/08 07:16:54;;;;;;;0.10;0.10;;;;;;;;;;6122900;23;20030;-75
2023/10/08 07:19:23;;;;;;;0.10;0.10;;;;;;;;;;6123090;23;20026;-75
2023/10/08 07:21:54;;;;;;;0.22;0.20;;;;;;;;;;6122000;23;20748;-75
2023/10/08 07:24:21;;;;;;;0.10;0.10;;;;;;;;;;6120369;23;20034;-75
2023/10/08 07:26:49;;;;;;;0.10;0.10;;;;;;;;;;6119770;23;20030;-74
2023/10/08 07:29:17;;;;;;;0.30;0.30;;;;;;;;;;6122532;23;20081;-75
2023/10/08 07:31:52;;;;;;;2.28;1.48;;;;;;;;;;6120868;23;20031;-75
2023/10/08 07:34:25;;;;;;;0.10;0.10;;;;;;;;;;6122147;23;20036;-75
2023/10/08 07:36:52;;;;;;;0.10;0.10;;;;;;;;;;6122070;23;20141;-74
2023/10/08 07:41:49;;;;;;;0.10;0.10;;;;;;;;;;6121156;23;20387;-75
2023/10/08 07:44:17;;;;;;;0.10;0.10;;;;;;;;;;6118849;23;20049;-75
2023/10/08 07:46:46;;;;;;;0.10;0.10;;;;;;;;;;6119330;23;20102;-75
2023/10/08 07:49:14;;;;;;;0.10;0.10;;;;;;;;;;6120469;23;20058;-75
2023/10/08 07:51:41;;;;;;;0.10;0.10;;;;;;;;;;6117690;23;20038;-75
2023/10/08 07:54:10;;;;;;;0.10;0.10;;;;;;;;;;6120545;23;20455;-75
2023/10/08 07:56:41;;;;;;;0.10;0.10;;;;;;;;;;6122210;23;20030;-75
2023/10/08 07:59:08;;;;;;;0.10;0.10;;;;;;;;;;6121107;23;20030;-74
2023/10/08 08:01:34;;;;;;;0.10;0.10;;;;;;;;;;6122684;23;20869;-75
2023/10/08 08:04:01;;;;;;;0.22;0.22;;;;;;;;;;6121158;23;20038;-76
2023/10/08 08:06:27;;;;;;;0.10;0.10;;;;;;;;;;6121966;23;20086;-75
2023/10/08 08:08:55;;;;;;;0.10;0.10;;;;;;;;;;6121242;23;20061;-75
2023/10/08 08:11:26;;;;;;;0.10;0.10;;;;;;;;;;6092523;23;20035;-75
2023/10/08 08:13:52;;;;;;;0.10;0.10;;;;;;;;;;6121668;23;20468;-73
2023/10/08 08:16:20;;;;;;;0.10;0.10;;;;;;;;;;6121689;23;20523;-74
2023/10/08 08:18:48;;;;;;;0.10;0.10;;;;;;;;;;6121505;23;20479;-75
2023/10/08 08:21:16;;;;;;;0.22;0.22;;;;;;;;;;6109423;23;20415;-74
2023/10/08 08:23:47;;;;;;;0.10;0.10;;;;;;;;;;6122064;23;20065;-75
2023/10/08 08:26:26;;;;;;;1.65;0.35;;;;;;;;;;6121501;23;20348;-75
2023/10/08 08:28:54;;;;;;;0.10;0.10;;;;;;;;;;6121241;23;20037;-75
2023/10/08 08:31:20;;;;;;;0.10;0.10;;;;;;;;;;6119505;23;20486;-74
2023/10/08 08:33:52;;;;;;;0.10;0.10;;;;;;;;;;6095160;23;20552;-75
2023/10/08 08:36:20;;;;;;;0.30;0.30;;;;;;;;;;6119286;23;20498;-76
2023/10/08 08:38:47;;;;;;;0.10;0.10;;;;;;;;;;6120201;23;20031;-75
2023/10/08 08:41:17;;;;;;;0.10;0.10;;;;;;;;;;6119221;23;20030;-75
2023/10/08 08:43:47;;;;;;;0.10;0.10;;;;;;;;;;6121571;23;20030;-75
2023/10/08 08:46:13;;;;;;;0.10;0.10;;;;;;;;;;6120630;23;20117;-75
2023/10/08 08:48:41;;;;;;;0.30;0.30;;;;;;;;;;6119261;23;20133;-73
2023/10/08 08:51:09;;;;;;;0.10;0.10;;;;;;;;;;6120405;23;20031;-75
2023/10/08 08:53:36;;;;;;;0.10;0.10;;;;;;;;;;6120447;23;20102;-74
2023/10/08 08:56:06;;;;;;;0.10;0.10;;;;;;;;;;6119989;23;20096;-75
2023/10/08 08:58:36;;;;;;;0.10;0.10;;;;;;;;;;6119862;23;20035;-74
2023/10/08 09:01:03;;;;;;;;;;;;;;;;;;6121830;23;20064;-75
2023/10/08 09:03:32;;;;;;;0.10;0.10;;;;;;;;;;6117872;23;46597;-73
2023/10/08 09:05:59;;;;;;;0.10;0.10;;;;;;;;;;6120360;23;20454;-75
2023/10/08 09:08:31;;;;;;;0.10;0.10;;;;;;;;;;6121161;23;20058;-73
2023/10/08 09:11:00;;;;;;;0.10;0.10;;;;;;;;;;6121060;23;20967;-73
2023/10/08 09:13:27;;;;;;;0.10;0.10;;;;;;;;;;6118925;23;20030;-75
2023/10/08 09:16:03;;;;;;;0.10;0.10;;;;;;;;;;6118595;23;20030;-74
2023/10/08 09:18:32;;;;;;;0.20;0.20;;;;;;;;;;6120684;23;20026;-76
2023/10/08 09:21:13;;;;;;;0.10;0.10;;;;;;;;;;6117916;23;20030;-72
2023/10/08 09:23:47;;;;;;;0.25;0.25;;;;;;;;;;6119616;23;20113;-75
2023/10/08 09:26:16;;;;;;;0.10;0.10;;;;;;;;;;6121777;23;20082;-75
2023/10/08 09:28:46;;;;;;;0.10;0.10;;;;;;;;;;6121286;23;20497;-76
2023/10/08 09:31:13;;;;;;;0.10;0.10;;;;;;;;;;6121726;23;20038;-73
2023/10/08 09:33:41;;;;;;;0.20;0.20;;;;;;;;;;6119570;23;20034;-75
2023/10/08 09:36:10;;;;;;;0.10;0.10;;;;;;;;;;6119517;23;20027;-76
2023/10/08 09:38:37;;;;;;;0.10;0.10;;;;;;;;;;6119549;23;20086;-74
2023/10/08 09:41:04;;;;;;;0.10;0.10;;;;;;;;;;6119390;23;20026;-74
2023/10/08 09:43:34;;;;;;;0.30;0.30;;;;;;;;;;6121309;23;20037;-74
2023/10/08 09:46:13;;;;;;;0.10;0.10;;;;;;;;;;6120908;23;20066;-72
2023/10/08 09:48:41;;;;;;;0.10;0.10;;;;;;;;;;6121942;23;20026;-74
2023/10/08 09:51:10;;;;;;;0.10;0.10;;;;;;;;;;6120255;23;20118;-73
2023/10/08 09:53:42;;;;;;;0.17;0.17;;;;;;;;;;6118305;23;20073;-75
2023/10/08 09:56:18;;;;;;;0.28;0.28;;;;;;;;;;6121946;23;20030;-74
2023/10/08 09:58:45;;;;;;;0.10;0.10;;;;;;;;;;6121264;23;20462;-75
2023/10/08 10:01:11;;;;;;;0.10;0.10;;;;;;;;;;6121422;23;20065;-73
2023/10/08 10:03:39;;;;;;;0.20;0.20;;;;;;;;;;6120468;23;20031;-76
2023/10/08 10:06:11;;;;;;;0.10;0.10;;;;;;;;;;6120637;23;20041;-73
2023/10/08 10:08:37;;;;;;;0.17;0.17;;;;;;;;;;6120427;23;20030;-73
2023/10/08 10:11:04;;;;;;;0.35;0.13;;;;;;;;;;6120160;23;20030;-74
2023/10/08 10:13:34;;;;;;;0.10;0.10;;;;;;;;;;6119717;23;20027;-76
2023/10/08 10:16:01;;;;;;;0.20;0.20;;;;;;;;;;6120472;23;20151;-72
2023/10/08 10:18:31;;;;;;;0.10;0.10;;;;;;;;;;6122418;23;20035;-74
2023/10/08 10:21:02;;;;;;;0.10;0.10;;;;;;;;;;6121381;23;20026;-72
2023/10/08 10:23:45;;;;;;;0.10;0.10;;;;;;;;;;6120191;23;20026;-74
2023/10/08 10:26:22;;;;;;;0.10;0.10;;;;;;;;;;6122728;23;20031;-76
2023/10/08 10:29:26;;;;;;;0.10;0.10;;;;;;;;;;6119436;23;20037;-76
2023/10/08 10:31:53;;;;;;;0.10;0.10;;;;;;;;;;6031651;23;20031;-76
2023/10/08 10:34:21;;;;;;;0.10;0.10;;;;;;;;;;6100782;23;20066;-75
2023/10/08 10:36:49;;;;;;;0.25;0.20;;;;;;;;;;6122303;23;20106;-75
2023/10/08 10:39:17;;;;;;;0.43;0.40;;;;;;;;;;6121183;23;20041;-76
2023/10/08 10:41:44;;;;;;;0.10;0.10;;;;;;;;;;6120641;23;20026;-75
2023/10/08 10:44:13;;;;;;;0.10;0.10;;;;;;;;;;6119280;23;20538;-75
2023/10/08 10:46:41;;;;;;;0.10;0.10;;;;;;;;;;6119553;23;20042;-74
2023/10/08 10:49:30;;;;;;;0.20;0.20;;;;;;;;;;6122340;23;20087;-75
2023/10/08 10:51:57;;;;;;;0.10;0.10;;;;;;;;;;6121366;23;20034;-75
2023/10/08 10:54:24;;;;;;;0.20;0.20;;;;;;;;;;6121594;23;20114;-75
2023/10/08 10:57:03;;;;;;;0.10;0.10;;;;;;;;;;6121399;23;20131;-75
2023/10/08 10:59:36;;;;;;;0.30;0.30;;;;;;;;;;6096901;23;20527;-75
2023/10/08 11:02:20;;;;;;;0.10;0.10;;;;;;;;;;6121277;23;20026;-75
2023/10/08 11:04:47;;;;;;;0.20;0.20;;;;;;;;;;6120258;23;20038;-75
2023/10/08 11:07:19;;;;;;;0.10;0.10;;;;;;;;;;6121676;23;20030;-75
2023/10/08 11:09:55;;;;;;;0.10;0.10;;;;;;;;;;6121937;23;20121;-75
2023/10/08 11:12:23;;;;;;;0.20;0.20;;;;;;;;;;6120910;23;20082;-75
2023/10/08 11:14:52;;;;;;;0.10;0.10;;;;;;;;;;6122243;23;20034;-75
2023/10/08 11:17:22;;;;;;;0.10;0.10;;;;;;;;;;6093785;23;20562;-75
2023/10/08 11:19:50;;;;;;;0.40;0.40;;;;;;;;;;6097265;23;20110;-75
2023/10/08 11:22:18;;;;;;;0.60;0.43;;;;;;;;;;6120995;23;20031;-75
2023/10/08 11:24:48;;;;;;;0.10;0.10;;;;;;;;;;6120696;23;20506;-75
2023/10/08 11:27:16;;;;;;;0.10;0.10;;;;;;;;;;6122135;23;20031;-75
2023/10/08 11:29:43;;;;;;;0.10;0.10;;;;;;;;;;6122404;23;20033;-75
2023/10/08 11:32:12;;;;;;;0.10;0.10;;;;;;;;;;6119932;23;20033;-75
2023/10/08 11:34:39;;;;;;;0.10;0.10;;;;;;;;;;6119658;23;20062;-75
2023/10/08 11:37:19;;;;;;;0.10;0.10;;;;;;;;;;6121458;23;20031;-73
2023/10/08 11:39:46;;;;;;;0.10;0.10;;;;;;;;;;6122053;23;20022;-73
2023/10/08 11:45:17;;;;;;;0.20;0.20;;;;;;;;;;6120563;23;20027;-72
2023/10/08 11:47:45;;;;;;;0.10;0.10;;;;;;;;;;6122825;23;20801;-73
2023/10/08 11:50:16;;;;;;;0.20;0.20;;;;;;;;;;6120808;23;20034;-73
2023/10/08 11:52:43;;;;;;;0.10;0.10;;;;;;;;;;6122193;23;20050;-73
2023/10/08 11:55:18;;;;;;;1.10;0.75;;;;;;;;;;6119569;23;20038;-73
2023/10/08 11:57:50;;;;;;;0.10;0.10;;;;;;;;;;6114312;23;20637;-73
2023/10/08 12:00:19;;;;;;;0.10;0.10;;;;;;;;;;6121787;23;20030;-73
2023/10/08 12:03:01;;;;;;;0.10;0.10;;;;;;;;;;6098459;23;20037;-73
2023/10/08 12:05:28;;;;;;;0.15;0.15;;;;;;;;;;6120554;23;20486;-73
2023/10/08 12:07:57;;;;;;;0.10;0.10;;;;;;;;;;6119515;23;20038;-73
2023/10/08 12:10:24;;;;;;;0.30;0.30;;;;;;;;;;6095511;23;20030;-74
2023/10/08 12:12:59;;;;;;;0.10;0.10;;;;;;;;;;6121413;23;20037;-73
2023/10/08 12:15:38;;;;;;;0.10;0.10;;;;;;;;;;6120378;23;20034;-74
2023/10/08 12:20:50;;;;;;;0.10;0.10;;;;;;;;;;6122347;23;20026;-73
2023/10/08 12:23:25;;;;;;;0.30;0.30;;;;;;;;;;6121136;23;20065;-73
2023/10/08 12:25:54;;;;;;;0.10;0.10;;;;;;;;;;6120662;23;20031;-74
2023/10/08 12:28:23;;;;;;;0.10;0.10;;;;;;;;;;6121753;23;20603;-73
2023/10/08 12:30:52;;;;;;;0.13;0.13;;;;;;;;;;6122173;23;20026;-74
2023/10/08 12:33:19;;;;;;;0.10;0.10;;;;;;;;;;6120628;23;20393;-74
2023/10/08 12:35:47;;;;;;;5.15;0.60;;;;;;;;;;6120546;23;20034;-74
2023/10/08 12:38:14;;;;;;;0.10;0.10;;;;;;;;;;6120286;23;20030;-74
2023/10/08 12:40:52;;;;;;;0.20;0.17;;;;;;;;;;6120484;23;20050;-73
2023/10/08 12:43:20;;;;;;;0.10;0.10;;;;;;;;;;6121136;23;20038;-73
2023/10/08 12:45:51;;;;;;;0.10;0.10;;;;;;;;;;6121345;23;20078;-73
2023/10/08 12:48:19;;;;;;;0.77;0.77;;;;;;;;;;6120645;23;20027;-73
2023/10/08 12:50:52;;;;;;;0.10;0.10;;;;;;;;;;6122393;23;20030;-73
2023/10/08 12:53:23;;;;;;;0.10;0.10;;;;;;;;;;6120175;23;20070;-73
2023/10/08 12:55:53;;;;;;;0.10;0.10;;;;;;;;;;6121411;23;20030;-74
2023/10/08 12:58:29;;;;;;;0.53;0.30;;;;;;;;;;6121846;23;20425;-73
2023/10/08 13:01:03;;;;;;;0.47;0.30;;;;;;;;;;6118748;23;20428;-73
2023/10/08 13:03:33;;;;;;;0.10;0.10;;;;;;;;;;6119543;23;20078;-73
2023/10/08 13:06:05;;;;;;;0.35;0.30;;;;;;;;;;6115892;23;20026;-74
2023/10/08 13:08:33;;;;;;;1.05;1.00;;;;;;;;;;6119480;23;20388;-75
2023/10/08 13:11:00;;;;;;;0.10;0.10;;;;;;;;;;6122302;23;20038;-74
2023/10/08 13:13:27;;;;;;;0.10;0.10;;;;;;;;;;6121335;23;20026;-74
2023/10/08 13:15:56;;;;;;;0.30;0.22;;;;;;;;;;6120956;23;20433;-75
2023/10/08 13:18:25;;;;;;;0.10;0.10;;;;;;;;;;6121006;23;20031;-75
2023/10/08 13:20:52;;;;;;;0.38;0.32;;;;;;;;;;6120951;23;20077;-75
2023/10/08 13:23:20;;;;;;;0.10;0.10;;;;;;;;;;6119185;23;20048;-75
2023/10/08 13:25:53;;;;;;;0.17;0.17;;;;;;;;;;6120831;23;20089;-75
2023/10/08 13:28:23;;;;;;;0.10;0.10;;;;;;;;;;6095731;23;20026;-74
2023/10/08 13:30:52;;;;;;;0.10;0.10;;;;;;;;;;6121218;23;20035;-75
2023/10/08 13:33:19;;;;;;;0.10;0.10;;;;;;;;;;6119083;23;20136;-75
2023/10/08 13:35:49;;;;;;;0.20;0.20;;;;;;;;;;6120328;23;20030;-75
2023/10/08 13:38:32;;;;;;;0.10;0.10;;;;;;;;;;6120994;23;20026;-74
2023/10/08 13:41:02;;;;;;;0.10;0.10;;;;;;;;;;6116773;23;20542;-75
2023/10/08 13:43:33;;;;;;;0.10;0.10;;;;;;;;;;6094188;23;20849;-75
2023/10/08 13:46:04;;;;;;;0.10;0.10;;;;;;;;;;6117628;23;20036;-74
2023/10/08 13:48:32;;;;;;;0.10;0.10;;;;;;;;;;6119612;23;20030;-74
2023/10/08 13:51:03;;;;;;;0.10;0.10;;;;;;;;;;6119403;23;20113;-75
2023/10/08 13:53:33;;;;;;;0.10;0.10;;;;;;;;;;6119783;23;20037;-75
2023/10/08 13:56:00;;;;;;;0.10;0.10;;;;;;;;;;6119145;23;20034;-75
2023/10/08 13:58:29;;;;;;;0.10;0.10;;;;;;;;;;6117795;23;20060;-75
2023/10/08 14:00:56;;;;;;;0.20;0.20;;;;;;;;;;6118053;23;20079;-75
2023/10/08 14:03:24;;;;;;;0.10;0.10;;;;;;;;;;6117688;23;20058;-75
2023/10/08 14:05:51;;;;;;;0.10;0.10;;;;;;;;;;6117391;23;20391;-75
2023/10/08 14:08:18;;;;;;;0.20;0.20;;;;;;;;;;6119793;23;20682;-75
2023/10/08 14:10:45;;;;;;;0.10;0.10;;;;;;;;;;6119256;23;20030;-75
2023/10/08 14:13:11;;;;;;;0.20;0.20;;;;;;;;;;6118904;23;20078;-74
2023/10/08 14:15:44;;;;;;;0.10;0.10;;;;;;;;;;6117855;23;20034;-75
2023/10/08 14:18:14;;;;;;;0.10;0.10;;;;;;;;;;6117097;23;20029;-75
2023/10/08 14:20:41;;;;;;;0.10;0.10;;;;;;;;;;6120603;23;20037;-75
2023/10/08 14:23:08;;;;;;;0.68;0.43;;;;;;;;;;6118616;23;20607;-75
2023/10/08 14:25:42;;;;;;;0.20;0.20;;;;;;;;;;6120354;23;20030;-75
2023/10/08 14:28:16;;;;;;;0.15;0.15;;;;;;;;;;6120291;23;20371;-74
2023/10/08 14:30:42;;;;;;;0.10;0.10;;;;;;;;;;6119854;23;20655;-75
2023/10/08 14:33:13;;;;;;;0.10;0.10;;;;;;;;;;6119211;23;20037;-75
2023/10/08 14:43:55;;;;;;;0.13;0.13;;;;;;;;;;6119820;23;20105;-74
2023/10/08 14:46:23;;;;;;;0.20;0.20;;;;;;;;;;6119242;23;20034;-76
2023/10/08 14:48:51;;;;;;;0.20;0.20;;;;;;;;;;6119822;23;20129;-75
2023/10/08 14:51:19;;;;;;;0.20;0.20;;;;;;;;;;6118696;23;20038;-75
2023/10/08 14:53:47;;;;;;;0.28;0.20;;;;;;;;;;6120810;23;20031;-76
2023/10/08 14:56:15;;;;;;;0.20;0.20;;;;;;;;;;6119773;23;20030;-75
2023/10/08 14:58:42;;;;;;;0.13;0.13;;;;;;;;;;6120109;23;20562;-75
2023/10/08 15:01:08;;;;;;;0.20;0.20;;;;;;;;;;6121636;23;20031;-75
2023/10/08 15:03:36;;;;;;;2.55;0.30;;;;;;;;;;6122197;23;20387;-75
2023/10/08 15:06:03;;;;;;;0.10;0.10;;;;;;;;;;6120339;23;20105;-76
2023/10/08 15:08:32;;;;;;;0.10;0.10;;;;;;;;;;6119525;23;20078;-75
2023/10/08 15:11:00;;;;;;;0.22;0.20;;;;;;;;;;6116195;23;20415;-75
2023/10/08 15:13:26;;;;;;;0.13;0.13;;;;;;;;;;6120693;23;20036;-75
2023/10/08 15:15:54;;;;;;;0.85;0.68;;;;;;;;;;6122398;23;20062;-75
2023/10/08 15:18:22;;;;;;;0.20;0.20;;;;;;;;;;6121209;23;20030;-75
2023/10/08 15:20:49;;;;;;;0.25;0.25;;;;;;;;;;6122162;23;20061;-75
2023/10/08 15:23:17;;;;;;;0.10;0.10;;;;;;;;;;6122251;23;20069;-75
2023/10/08 15:25:43;;;;;;;0.30;0.30;;;;;;;;;;6121728;23;20032;-75
2023/10/08 15:28:09;;;;;;;0.30;0.22;;;;;;;;;;6120539;23;20577;-75
2023/10/08 15:30:37;;;;;;;0.13;0.13;;;;;;;;;;6120406;23;20030;-76
2023/10/08 15:33:04;;;;;;;0.10;0.10;;;;;;;;;;6119898;23;20026;-76
2023/10/08 15:35:30;;;;;;;0.40;0.40;;;;;;;;;;6122031;23;20030;-76
2023/10/08 15:37:56;;;;;;;0.25;0.25;;;;;;;;;;6120800;23;20168;-75
2023/10/08 15:40:23;;;;;;;2.38;0.30;;;;;;;;;;6121651;23;20622;-75
2023/10/08 15:42:51;;;;;;;0.38;0.30;;;;;;;;;;6121253;23;20096;-75
2023/10/08 15:45:18;;;;;;;0.38;0.30;;;;;;;;;;6120428;23;20030;-75
2023/10/08 15:47:45;;;;;;;0.57;0.57;;;;;;;;;;6119380;23;20473;-75
2023/10/08 15:50:11;;;;;;;0.30;0.30;;;;;;;;;;6121008;23;20036;-75
2023/10/08 15:52:38;;;;;;;0.13;0.13;;;;;;;;;;6119560;23;20137;-75
2023/10/08 15:55:05;;;;;;;0.10;0.10;;;;;;;;;;6121132;23;20050;-75
2023/10/08 15:57:31;;;;;;;0.20;0.20;;;;;;;;;;6120193;23;20030;-75
2023/10/08 15:59:57;;;;;;;0.10;0.10;;;;;;;;;;6121752;23;20142;-75
2023/10/08 16:02:24;;;;;;;0.10;0.10;;;;;;;;;;6120231;23;20491;-75
2023/10/08 16:04:50;;;;;;;0.10;0.10;;;;;;;;;;6121944;23;20040;-75
2023/10/08 16:07:17;;;;;;;0.20;0.20;;;;;;;;;;6120282;23;20081;-75
2023/10/08 16:09:43;;;;;;;0.10;0.10;;;;;;;;;;6094695;23;20508;-75
2023/10/08 16:12:10;;;;;;;0.47;0.30;;;;;;;;;;6122077;23;20026;-76
2023/10/08 16:14:36;;;;;;;0.10;0.10;;;;;;;;;;6121117;23;20034;-75